Terminal Aerodrome Forecast
Issued by NWS

Current Version | Previous Version | Graphics & Text | Print | Product List | Glossary On
Versions: 1 2 3 4 5 6 7 8 9 10 11 12 13 14 15 16 17 18 19 20 21 22 23
000
FTUS41 KRLX 031443 AAA
TAFCKB
TAF AMD
KCKB 031443Z 0315/0412 20004KT P6SM FEW110
     FM031600 23009G15KT P6SM SCT050
     FM032000 22009G15KT P6SM VCTS SCT045CB
     FM032300 21005KT 6SM BR VCTS BKN045CB
     FM040200 19004KT 3SM BR VCTS BKN030CB
     FM040900 21004KT P6SM BKN030=

USA.gov is the U.S. government's official web portal to all federal, state and local government web resources and services.